Time;durP1;ratioP1;P1;durP2;ratioP2;P2;SDS_P1;SDS_P2;PMS_P1;PMS_P2;Temp;Humidity;BMP_temperature;BMP_pressure;BME280_temperature;BME280_humidity;BME280_pressure;Samples;Min_cycle;Max_cycle;Signal;HPM_P1;HPM_P2
2023/09/28 00:02:21;;;;;;;18.83;11.02;;;11.70;99.90;;;;;;5028714;28;20036;-61
2023/09/28 00:04:47;;;;;;;14.80;8.88;;;11.70;99.90;;;;;;5047487;28;20373;-62
2023/09/28 00:07:13;;;;;;;13.90;8.02;;;11.70;99.90;;;;;;5051580;28;20425;-61
2023/09/28 00:09:38;;;;;;;15.15;8.00;;;11.60;99.90;;;;;;5050811;28;20040;-62
2023/09/28 00:12:04;;;;;;;13.95;7.88;;;11.60;99.90;;;;;;5051166;28;20025;-61
2023/09/28 00:14:30;;;;;;;14.95;9.00;;;11.60;99.90;;;;;;5051042;28;20457;-62
2023/09/28 00:16:57;;;;;;;15.77;8.70;;;11.70;99.90;;;;;;5050712;28;20449;-62
2023/09/28 00:19:24;;;;;;;18.52;9.23;;;11.60;99.90;;;;;;5051120;28;20029;-62
2023/09/28 00:21:50;;;;;;;17.38;9.32;;;11.60;99.90;;;;;;5050609;28;20017;-61
2023/09/28 00:24:16;;;;;;;18.90;10.32;;;11.60;99.90;;;;;;5051158;28;20037;-62
2023/09/28 00:26:42;;;;;;;15.77;10.07;;;11.50;99.90;;;;;;5050583;28;20029;-62
2023/09/28 00:29:07;;;;;;;17.10;9.88;;;11.40;99.90;;;;;;5050490;28;20025;-62
2023/09/28 00:31:33;;;;;;;15.25;9.32;;;11.40;99.90;;;;;;5050041;28;20036;-62
2023/09/28 00:34:00;;;;;;;16.85;9.50;;;11.30;99.90;;;;;;5050988;28;20029;-62
2023/09/28 00:36:25;;;;;;;17.05;9.55;;;11.30;99.90;;;;;;5050422;28;20142;-61
2023/09/28 00:38:51;;;;;;;18.15;9.20;;;11.30;99.90;;;;;;5050502;28;20477;-61
2023/09/28 00:41:17;;;;;;;16.08;9.10;;;11.20;99.90;;;;;;5050911;28;20036;-61
2023/09/28 00:43:42;;;;;;;15.98;9.15;;;11.20;99.90;;;;;;5049465;28;20102;-62
2023/09/28 00:46:13;;;;;;;18.13;9.77;;;11.10;99.90;;;;;;5050312;28;20537;-61
2023/09/28 00:48:57;;;;;;;15.52;8.45;;;11.10;99.90;;;;;;5049871;28;20017;-61
2023/09/28 00:51:25;;;;;;;14.82;8.15;;;11.20;99.90;;;;;;5050870;28;20076;-61
2023/09/28 00:53:52;;;;;;;13.73;8.02;;;11.20;99.90;;;;;;5049946;28;20033;-62
2023/09/28 00:56:19;;;;;;;13.18;8.13;;;11.10;99.90;;;;;;5050425;28;20750;-62
2023/09/28 00:58:48;;;;;;;14.80;8.10;;;11.10;99.90;;;;;;5048894;28;20720;-62
2023/09/28 01:01:14;;;;;;;13.90;8.25;;;11.10;99.90;;;;;;5049934;28;20040;-62
2023/09/28 01:03:40;;;;;;;13.73;7.65;;;11.10;99.90;;;;;;5049850;28;20033;-62
2023/09/28 01:06:08;;;;;;;14.27;7.50;;;11.00;99.90;;;;;;5050488;28;20021;-62
2023/09/28 01:08:33;;;;;;;14.20;7.85;;;11.00;99.90;;;;;;5049948;28;20120;-61
2023/09/28 01:10:59;;;;;;;12.88;7.38;;;10.90;99.90;;;;;;5048805;28;20124;-61
2023/09/28 01:13:27;;;;;;;13.90;8.10;;;10.90;99.90;;;;;;5049629;28;20524;-61
2023/09/28 01:15:52;;;;;;;13.23;7.97;;;10.90;99.90;;;;;;5048576;28;20113;-61
2023/09/28 01:18:19;;;;;;;17.67;7.75;;;10.90;99.90;;;;;;5049664;28;20104;-61
2023/09/28 01:20:47;;;;;;;14.80;8.65;;;11.00;99.90;;;;;;5029623;28;20115;-61
2023/09/28 01:23:13;;;;;;;21.83;9.30;;;11.00;99.90;;;;;;5030352;28;20044;-61
2023/09/28 01:25:39;;;;;;;21.20;10.38;;;11.00;99.90;;;;;;5029578;28;20416;-62
2023/09/28 01:28:06;;;;;;;18.92;10.10;;;11.00;99.90;;;;;;5033290;28;20063;-62
2023/09/28 01:30:33;;;;;;;19.42;10.10;;;11.00;99.90;;;;;;5049711;28;20036;-61
2023/09/28 01:32:58;;;;;;;18.50;10.18;;;11.00;99.90;;;;;;5049510;28;20487;-62
2023/09/28 01:35:24;;;;;;;20.55;11.18;;;10.90;99.90;;;;;;5050111;28;20056;-62
2023/09/28 01:37:55;;;;;;;25.55;12.27;;;11.00;99.90;;;;;;5048894;28;20075;-62
2023/09/28 01:40:20;;;;;;;21.05;11.65;;;10.90;99.90;;;;;;5049961;28;20124;-62
2023/09/28 01:42:46;;;;;;;18.10;10.75;;;10.90;99.90;;;;;;5048273;28;20443;-61
2023/09/28 01:45:12;;;;;;;18.00;10.20;;;10.90;99.90;;;;;;5049488;28;20033;-62
2023/09/28 01:47:38;;;;;;;17.55;10.07;;;10.80;99.90;;;;;;5049088;28;20105;-61
2023/09/28 01:50:04;;;;;;;19.13;10.82;;;10.70;99.90;;;;;;5049745;28;20029;-61
2023/09/28 01:52:30;;;;;;;18.52;10.63;;;10.70;99.90;;;;;;5049718;28;20116;-61
2023/09/28 01:54:56;;;;;;;23.75;11.23;;;10.70;99.90;;;;;;5048546;28;20712;-62
2023/09/28 01:57:21;;;;;;;20.27;10.57;;;10.70;99.90;;;;;;5049244;28;20592;-62
2023/09/28 01:59:47;;;;;;;15.57;9.40;;;10.70;99.90;;;;;;5048589;28;20024;-62
2023/09/28 02:02:15;;;;;;;18.38;9.75;;;10.70;99.90;;;;;;5049265;28;20045;-62
2023/09/28 02:04:41;;;;;;;18.10;9.65;;;10.60;99.90;;;;;;5048673;28;20037;-62
2023/09/28 02:07:06;;;;;;;15.73;8.82;;;10.60;99.90;;;;;;5049107;28;20082;-62
2023/09/28 02:09:32;;;;;;;16.50;9.45;;;10.60;99.90;;;;;;5049446;28;20765;-62
2023/09/28 02:11:58;;;;;;;18.27;8.95;;;10.60;99.90;;;;;;5048642;28;20071;-62
2023/09/28 02:14:23;;;;;;;16.10;8.85;;;10.50;99.90;;;;;;5048968;28;20095;-62
2023/09/28 02:16:50;;;;;;;13.38;8.15;;;10.50;99.90;;;;;;5048236;28;20121;-62
2023/09/28 02:19:16;;;;;;;17.90;9.15;;;10.50;99.90;;;;;;5049137;28;20033;-62
2023/09/28 02:21:42;;;;;;;14.38;8.82;;;10.50;99.90;;;;;;5048629;28;20032;-62
2023/09/28 02:24:08;;;;;;;20.77;9.45;;;10.40;99.90;;;;;;5068892;28;20495;-62
2023/09/28 02:26:34;;;;;;;19.17;9.93;;;10.40;99.90;;;;;;5068918;28;20033;-62
2023/09/28 02:29:00;;;;;;;19.88;10.40;;;10.50;99.90;;;;;;5067859;28;20115;-62
2023/09/28 02:31:27;;;;;;;19.25;10.55;;;10.40;99.90;;;;;;5057011;28;20059;-62
2023/09/28 02:33:53;;;;;;;18.40;10.07;;;10.40;99.90;;;;;;5047283;28;20041;-62
2023/09/28 02:36:19;;;;;;;23.10;12.88;;;10.50;99.90;;;;;;5048100;28;20099;-62
2023/09/28 02:38:45;;;;;;;23.73;12.45;;;10.40;99.90;;;;;;5047704;28;20033;-62
2023/09/28 02:41:17;;;;;;;24.25;12.75;;;10.40;99.90;;;;;;5048588;28;20450;-62
2023/09/28 02:43:42;;;;;;;25.55;13.40;;;10.40;99.90;;;;;;5047588;28;20107;-62
2023/09/28 02:46:08;;;;;;;22.00;11.75;;;10.40;99.90;;;;;;5048408;28;20150;-62
2023/09/28 02:48:34;;;;;;;17.67;10.45;;;10.40;99.90;;;;;;5048291;28;20037;-62
2023/09/28 02:51:02;;;;;;;20.52;10.77;;;10.40;99.90;;;;;;5047798;28;20025;-62
2023/09/28 02:53:29;;;;;;;20.65;10.60;;;10.40;99.90;;;;;;5047760;28;20040;-62
2023/09/28 02:55:55;;;;;;;18.10;10.80;;;10.30;99.90;;;;;;5044023;28;20029;-62
2023/09/28 02:58:24;;;;;;;19.38;10.73;;;10.30;99.90;;;;;;5047977;28;20099;-62
2023/09/28 03:00:53;;;;;;;21.88;12.20;;;10.30;99.90;;;;;;5047314;28;20497;-62
2023/09/28 03:03:19;;;;;;;22.98;12.77;;;10.40;99.90;;;;;;5048129;28;20522;-62
2023/09/28 03:05:45;;;;;;;25.25;13.05;;;10.30;99.90;;;;;;5047632;28;20021;-62
2023/09/28 03:08:14;;;;;;;26.02;12.82;;;10.40;99.90;;;;;;5048294;28;20038;-62
2023/09/28 03:10:42;;;;;;;24.67;12.90;;;10.40;99.90;;;;;;5047731;28;20033;-62
2023/09/28 03:13:08;;;;;;;24.75;12.50;;;10.40;99.90;;;;;;5047864;28;20029;-62
2023/09/28 03:15:35;;;;;;;20.55;11.20;;;10.40;99.90;;;;;;5047697;28;20377;-62
2023/09/28 03:18:02;;;;;;;23.40;11.60;;;10.40;99.90;;;;;;5047313;28;20680;-62
2023/09/28 03:20:30;;;;;;;24.00;13.10;;;10.40;99.90;;;;;;5048190;28;20025;-62
2023/09/28 03:22:55;;;;;;;26.70;13.25;;;10.30;99.90;;;;;;5047469;28;20025;-62
2023/09/28 03:25:22;;;;;;;23.92;12.88;;;10.40;99.90;;;;;;5047627;28;20029;-62
2023/09/28 03:27:56;;;;;;;19.98;11.40;;;10.40;99.90;;;;;;5047230;28;20116;-62
2023/09/28 03:30:24;;;;;;;17.98;9.98;;;10.40;99.90;;;;;;5047892;28;20033;-62
2023/09/28 03:32:50;;;;;;;16.10;9.18;;;10.30;99.90;;;;;;5047372;28;20029;-62
2023/09/28 03:35:17;;;;;;;14.73;7.88;;;10.30;99.90;;;;;;5047722;28;20060;-62
2023/09/28 03:37:43;;;;;;;13.50;7.63;;;10.20;99.90;;;;;;5048336;28;20083;-62
2023/09/28 03:40:11;;;;;;;14.90;8.45;;;10.20;99.90;;;;;;5051928;28;20131;-62
2023/09/28 03:42:48;;;;;;;18.15;10.45;;;10.10;99.90;;;;;;5051811;28;20061;-62
2023/09/28 03:45:16;;;;;;;26.30;12.85;;;10.20;99.90;;;;;;5051794;28;20094;-62
2023/09/28 03:47:43;;;;;;;21.67;12.45;;;10.20;99.90;;;;;;5051786;28;20025;-62
2023/09/28 03:50:10;;;;;;;21.58;11.20;;;10.10;99.90;;;;;;5051756;28;20505;-62
2023/09/28 03:52:37;;;;;;;27.88;14.35;;;10.10;99.90;;;;;;5051843;28;20424;-62
2023/09/28 03:55:13;;;;;;;20.50;11.45;;;10.00;99.90;;;;;;5050820;28;20094;-62
2023/09/28 03:57:41;;;;;;;20.10;11.32;;;9.90;99.90;;;;;;5035752;28;20028;-62
2023/09/28 04:00:12;;;;;;;23.25;12.00;;;9.90;99.90;;;;;;5050929;28;20029;-62
2023/09/28 04:02:38;;;;;;;24.33;12.35;;;9.90;99.90;;;;;;5051612;28;20145;-62
2023/09/28 04:05:05;;;;;;;26.00;12.40;;;9.90;99.90;;;;;;5050841;28;20040;-62
2023/09/28 04:07:30;;;;;;;25.42;11.93;;;9.90;99.90;;;;;;5051720;28;20045;-62
2023/09/28 04:09:56;;;;;;;21.67;10.82;;;9.90;99.90;;;;;;5063182;28;20056;-62
2023/09/28 04:12:22;;;;;;;21.58;11.95;;;9.90;99.90;;;;;;5051354;28;20592;-62
2023/09/28 04:14:48;;;;;;;24.25;11.13;;;10.00;99.90;;;;;;5050541;28;20029;-62
2023/09/28 04:17:13;;;;;;;20.58;10.90;;;10.00;99.90;;;;;;5051750;28;20094;-63
2023/09/28 04:19:40;;;;;;;21.40;11.35;;;10.00;99.90;;;;;;5051503;28;20376;-62
2023/09/28 04:22:05;;;;;;;17.80;10.07;;;10.00;99.90;;;;;;5050192;28;20488;-62
2023/09/28 04:24:31;;;;;;;17.63;10.32;;;9.90;99.90;;;;;;5051033;28;20025;-62
2023/09/28 04:26:58;;;;;;;21.17;11.18;;;9.90;99.90;;;;;;5050088;28;20029;-62
2023/09/28 04:29:26;;;;;;;19.50;10.32;;;9.90;99.90;;;;;;5051033;28;20116;-63
2023/09/28 04:31:52;;;;;;;18.98;10.65;;;9.90;99.90;;;;;;5050299;28;20021;-62
2023/09/28 04:34:18;;;;;;;21.17;11.27;;;9.80;99.90;;;;;;5050723;28;20073;-62
2023/09/28 04:36:45;;;;;;;24.42;11.93;;;9.90;99.90;;;;;;5050118;28;20132;-63
2023/09/28 04:39:11;;;;;;;21.65;11.00;;;9.90;99.90;;;;;;5050417;28;20036;-62
2023/09/28 04:41:37;;;;;;;18.98;10.13;;;10.00;99.90;;;;;;5050932;28;20151;-62
2023/09/28 04:44:04;;;;;;;21.48;10.52;;;9.90;99.90;;;;;;5049970;28;20029;-62
2023/09/28 04:46:29;;;;;;;22.80;11.20;;;9.80;99.90;;;;;;5050484;28;20552;-62
2023/09/28 04:48:55;;;;;;;27.00;13.45;;;9.80;99.90;;;;;;5048762;28;20100;-62
2023/09/28 04:51:22;;;;;;;28.80;13.70;;;9.90;99.90;;;;;;5050042;28;20029;-62
2023/09/28 04:53:48;;;;;;;26.60;13.10;;;9.90;99.90;;;;;;5048297;28;20156;-62
2023/09/28 04:56:14;;;;;;;23.58;11.93;;;10.00;99.90;;;;;;5049373;28;20037;-62
2023/09/28 04:58:41;;;;;;;19.05;10.38;;;9.90;99.90;;;;;;5047529;28;20143;-62
2023/09/28 05:01:07;;;;;;;21.20;10.07;;;10.00;99.90;;;;;;5044321;28;20473;-61
2023/09/28 05:03:33;;;;;;;16.27;9.73;;;10.00;99.90;;;;;;5043477;28;20037;-61
2023/09/28 05:05:59;;;;;;;16.17;8.98;;;10.00;99.90;;;;;;5047906;28;20036;-61
2023/09/28 05:08:25;;;;;;;15.73;9.27;;;9.90;99.90;;;;;;5047708;28;20037;-61
2023/09/28 05:10:51;;;;;;;22.40;10.23;;;9.80;99.90;;;;;;5049407;28;20029;-61
2023/09/28 05:13:17;;;;;;;20.73;11.57;;;9.80;99.90;;;;;;5045026;28;20128;-61
2023/09/28 05:15:43;;;;;;;24.20;11.80;;;9.80;99.90;;;;;;5041000;28;20457;-61
2023/09/28 05:18:08;;;;;;;23.38;11.23;;;9.90;99.90;;;;;;5047276;28;20370;-61
2023/09/28 05:20:35;;;;;;;20.55;11.55;;;10.00;99.90;;;;;;5051149;28;20072;-60
2023/09/28 05:23:01;;;;;;;24.95;12.20;;;10.10;99.90;;;;;;5051165;28;20436;-67
2023/09/28 05:25:26;;;;;;;17.33;9.77;;;10.10;99.90;;;;;;5050008;28;20143;-67
2023/09/28 05:27:52;;;;;;;16.17;9.15;;;10.00;99.90;;;;;;5049324;28;20033;-67
2023/09/28 05:30:17;;;;;;;19.45;9.35;;;10.00;99.90;;;;;;5049706;28;20059;-66
2023/09/28 05:32:43;;;;;;;19.08;10.68;;;9.90;99.90;;;;;;5047586;28;20033;-66
2023/09/28 05:35:10;;;;;;;23.58;10.77;;;10.00;99.90;;;;;;5047641;28;20082;-66
2023/09/28 05:37:36;;;;;;;17.17;10.05;;;10.10;99.90;;;;;;5049316;28;20048;-66
2023/09/28 05:40:04;;;;;;;24.58;12.48;;;10.20;99.90;;;;;;5047924;28;20408;-66
2023/09/28 05:42:30;;;;;;;23.63;12.85;;;10.30;99.90;;;;;;5049664;28;20036;-68
2023/09/28 05:44:56;;;;;;;20.70;11.00;;;10.40;99.90;;;;;;5048368;28;20029;-67
2023/09/28 05:47:21;;;;;;;15.20;9.07;;;10.40;99.90;;;;;;5049427;28;20025;-67
2023/09/28 05:49:49;;;;;;;18.25;9.38;;;10.40;99.90;;;;;;5049276;28;20566;-66
2023/09/28 05:52:15;;;;;;;16.65;9.00;;;10.40;99.90;;;;;;5049394;28;20059;-67
2023/09/28 05:54:42;;;;;;;16.80;8.65;;;10.30;99.90;;;;;;5049495;28;20127;-66
2023/09/28 05:57:07;;;;;;;19.02;9.52;;;10.20;99.90;;;;;;5048669;28;20032;-66
2023/09/28 05:59:33;;;;;;;16.10;9.57;;;10.20;99.90;;;;;;5049185;28;20045;-67
2023/09/28 06:01:58;;;;;;;17.63;9.90;;;10.20;99.90;;;;;;5047881;28;20037;-67
2023/09/28 06:04:25;;;;;;;17.27;9.50;;;10.10;99.90;;;;;;5048868;28;20120;-67
2023/09/28 06:06:50;;;;;;;16.85;9.68;;;10.10;99.90;;;;;;5048793;28;20377;-67
2023/09/28 06:09:18;;;;;;;18.27;9.70;;;10.10;99.90;;;;;;5048764;28;20107;-67
2023/09/28 06:11:45;;;;;;;18.70;9.82;;;10.10;99.90;;;;;;5047177;28;20056;-67
2023/09/28 06:14:13;;;;;;;16.75;9.25;;;10.10;99.90;;;;;;5047623;28;20122;-67
2023/09/28 06:16:40;;;;;;;17.63;9.88;;;10.10;99.90;;;;;;5046332;28;20053;-67
2023/09/28 06:19:06;;;;;;;20.60;10.38;;;10.20;99.90;;;;;;5048114;28;20033;-66
2023/09/28 06:21:32;;;;;;;20.35;9.50;;;10.20;99.90;;;;;;5048867;28;20035;-67
2023/09/28 06:23:58;;;;;;;15.88;9.20;;;10.10;99.90;;;;;;5046314;28;20128;-67
2023/09/28 06:26:24;;;;;;;17.73;10.23;;;10.20;99.90;;;;;;5051054;28;20070;-67
2023/09/28 06:28:50;;;;;;;19.48;9.55;;;10.20;99.90;;;;;;5046762;28;20032;-67
2023/09/28 06:31:18;;;;;;;17.52;10.32;;;10.20;99.90;;;;;;5037271;28;20059;-67
2023/09/28 06:33:47;;;;;;;22.17;11.13;;;10.20;99.90;;;;;;5047058;28;20032;-67
2023/09/28 06:36:14;;;;;;;18.02;9.88;;;10.20;99.90;;;;;;5045755;28;20041;-67
2023/09/28 06:38:40;;;;;;;21.42;9.85;;;10.20;99.90;;;;;;5047785;28;20033;-67
2023/09/28 06:41:06;;;;;;;22.30;9.75;;;10.20;99.90;;;;;;5046248;28;20044;-67
2023/09/28 06:43:32;;;;;;;20.40;10.55;;;10.30;99.90;;;;;;5043731;28;20033;-67
2023/09/28 06:45:58;;;;;;;24.65;11.93;;;10.40;99.90;;;;;;5039343;28;20030;-67
2023/09/28 06:48:25;;;;;;;24.00;12.15;;;10.60;99.90;;;;;;5028770;28;20026;-67
2023/09/28 06:50:53;;;;;;;24.02;12.73;;;10.70;99.90;;;;;;5028773;28;20052;-67
2023/09/28 06:53:19;;;;;;;22.75;12.50;;;10.80;99.90;;;;;;5047582;28;20029;-67
2023/09/28 06:55:45;;;;;;;21.70;11.52;;;10.90;99.90;;;;;;5041735;28;20029;-67
2023/09/28 06:58:14;;;;;;;26.08;12.60;;;10.90;99.90;;;;;;5033535;28;20036;-67
2023/09/28 07:00:46;;;;;;;23.25;12.27;;;11.10;99.90;;;;;;5047435;28;20131;-67
2023/09/28 07:03:13;;;;;;;20.95;10.90;;;11.10;99.90;;;;;;5047320;28;20493;-67
2023/09/28 07:05:39;;;;;;;23.92;13.18;;;11.20;99.90;;;;;;5046116;28;20025;-67
2023/09/28 07:08:05;;;;;;;32.88;16.67;;;11.40;99.90;;;;;;5047135;28;20021;-66
2023/09/28 07:10:35;;;;;;;27.88;13.50;;;11.60;99.90;;;;;;5043869;28;20437;-67
2023/09/28 07:13:05;;;;;;;23.58;12.10;;;11.70;99.90;;;;;;5045014;28;20037;-67
2023/09/28 07:15:32;;;;;;;22.73;13.18;;;11.90;99.90;;;;;;5048161;28;20086;-67
2023/09/28 07:17:59;;;;;;;22.27;12.52;;;12.00;99.90;;;;;;5047565;28;20021;-67
2023/09/28 07:20:26;;;;;;;32.83;14.60;;;12.20;99.90;;;;;;5048290;28;20029;-67
2023/09/28 07:22:52;;;;;;;18.88;11.27;;;12.50;99.90;;;;;;5048230;28;20102;-67
2023/09/28 07:25:19;;;;;;;19.65;11.43;;;12.80;99.90;;;;;;5047258;28;20551;-68
2023/09/28 07:27:45;;;;;;;20.98;11.60;;;12.90;99.90;;;;;;5048572;28;20186;-67
2023/09/28 07:30:11;;;;;;;18.15;10.55;;;13.00;99.90;;;;;;5047292;28;20021;-67
2023/09/28 07:32:38;;;;;;;22.15;11.35;;;13.20;99.90;;;;;;5048073;28;20029;-67
2023/09/28 07:35:04;;;;;;;20.08;11.98;;;13.40;99.90;;;;;;5046992;28;20393;-67
2023/09/28 07:37:31;;;;;;;20.73;12.13;;;13.50;99.90;;;;;;5031915;28;20075;-67
2023/09/28 07:39:56;;;;;;;27.83;11.63;;;13.80;99.90;;;;;;5046724;28;20025;-67
2023/09/28 07:42:23;;;;;;;21.73;12.30;;;14.00;99.90;;;;;;5048074;28;20492;-67
2023/09/28 07:44:51;;;;;;;30.73;12.40;;;14.20;99.90;;;;;;5047323;28;20101;-68
2023/09/28 07:47:18;;;;;;;21.30;11.60;;;14.40;99.90;;;;;;5047311;28;20055;-68
2023/09/28 07:49:47;;;;;;;20.80;11.40;;;14.50;99.90;;;;;;5027693;28;20037;-67
2023/09/28 07:52:13;;;;;;;25.60;11.70;;;14.50;99.90;;;;;;5046651;28;20087;-68
2023/09/28 07:54:39;;;;;;;20.27;11.05;;;14.50;99.90;;;;;;5047262;28;20512;-67
2023/09/28 07:57:07;;;;;;;20.92;11.15;;;14.60;99.90;;;;;;5047263;28;20037;-67
2023/09/28 07:59:33;;;;;;;18.85;10.73;;;14.70;99.90;;;;;;5047723;28;20040;-68
2023/09/28 08:01:59;;;;;;;22.27;11.27;;;14.80;99.90;;;;;;5047153;28;20079;-68
2023/09/28 08:04:25;;;;;;;20.40;10.52;;;15.00;99.90;;;;;;5047685;28;20025;-67
2023/09/28 08:06:51;;;;;;;19.23;9.93;;;15.20;99.90;;;;;;5047959;28;20037;-68
2023/09/28 08:09:19;;;;;;;17.50;10.85;;;15.40;99.90;;;;;;5047026;28;20021;-68
2023/09/28 08:11:46;;;;;;;17.98;10.23;;;15.70;99.90;;;;;;5047765;28;20110;-68
2023/09/28 08:14:15;;;;;;;16.80;9.93;;;15.90;99.90;;;;;;5046571;28;20036;-68
2023/09/28 08:16:47;;;;;;;16.58;10.05;;;16.20;99.90;;;;;;5047750;28;20108;-68
2023/09/28 08:19:13;;;;;;;17.52;9.38;;;16.30;99.90;;;;;;5047359;28;20096;-68
2023/09/28 08:21:40;;;;;;;17.02;9.05;;;16.50;99.90;;;;;;5047691;28;20463;-68
2023/09/28 08:24:06;;;;;;;19.25;9.25;;;16.60;99.90;;;;;;5048002;28;20550;-68
2023/09/28 08:26:32;;;;;;;15.75;9.25;;;16.70;99.90;;;;;;5051414;28;20075;-68
2023/09/28 08:28:58;;;;;;;15.25;9.68;;;16.90;99.90;;;;;;5049699;28;20029;-68
2023/09/28 08:31:24;;;;;;;15.18;8.05;;;17.10;99.90;;;;;;5049285;28;20040;-68
2023/09/28 08:33:49;;;;;;;15.07;8.20;;;17.30;99.90;;;;;;5050744;28;20029;-68
2023/09/28 08:36:16;;;;;;;14.95;8.75;;;17.50;99.90;;;;;;5049011;28;20449;-68
2023/09/28 08:38:42;;;;;;;12.57;7.88;;;17.70;99.90;;;;;;5050235;28;20117;-69
2023/09/28 08:41:09;;;;;;;17.27;8.80;;;17.80;99.90;;;;;;5050200;28;20801;-70
2023/09/28 08:43:42;;;;;;;15.55;8.35;;;18.10;99.90;;;;;;5050896;28;20033;-69
2023/09/28 08:46:11;;;;;;;13.57;8.13;;;18.30;99.90;;;;;;5049436;28;20037;-70
2023/09/28 08:48:43;;;;;;;14.10;7.60;;;18.50;99.90;;;;;;5050549;28;20038;-74
2023/09/28 08:51:11;;;;;;;13.07;7.10;;;18.70;99.90;;;;;;5050059;28;20037;-74
2023/09/28 08:53:41;;;;;;;15.25;7.50;;;18.90;99.90;;;;;;5049585;28;20446;-75
2023/09/28 08:56:07;;;;;;;12.33;6.90;;;19.20;99.90;;;;;;5046918;28;20029;-75
2023/09/28 08:58:37;;;;;;;10.18;6.95;;;19.50;99.90;;;;;;5050411;28;20063;-75
2023/09/28 09:01:06;;;;;;;12.25;6.68;;;19.80;99.90;;;;;;5049095;28;20044;-74
2023/09/28 09:03:35;;;;;;;12.55;6.63;;;19.90;99.90;;;;;;5049747;28;20060;-75
2023/09/28 09:06:04;;;;;;;13.90;6.60;;;20.20;99.90;;;;;;5049724;28;20055;-75
2023/09/28 09:08:35;;;;;;;10.50;6.72;;;20.40;99.90;;;;;;5050803;28;20044;-75
2023/09/28 09:11:01;;;;;;;11.15;6.30;;;20.60;99.90;;;;;;5050049;28;20135;-74
2023/09/28 09:13:28;;;;;;;10.27;6.00;;;20.70;99.90;;;;;;5049972;28;20037;-76
2023/09/28 09:15:55;;;;;;;15.88;5.93;;;20.90;99.90;;;;;;5050723;28;20045;-76
2023/09/28 09:18:24;;;;;;;10.50;5.78;;;21.00;99.90;;;;;;5053508;28;20044;-76
2023/09/28 09:20:56;;;;;;;11.07;5.07;;;21.20;99.90;;;;;;5052573;28;20024;-77
2023/09/28 09:23:22;;;;;;;9.63;4.97;;;21.30;99.90;;;;;;5051010;28;20528;-76
2023/09/28 09:25:48;;;;;;;13.30;4.80;;;21.50;99.90;;;;;;5049926;28;20025;-76
2023/09/28 09:28:34;;;;;;;9.82;4.82;;;21.60;99.90;;;;;;5049018;28;20039;-76
2023/09/28 09:31:01;;;;;;;15.07;4.45;;;21.80;99.90;;;;;;5049831;28;20082;-75
2023/09/28 09:33:27;;;;;;;11.93;5.65;;;22.00;99.90;;;;;;5049001;28;20100;-75
2023/09/28 09:35:53;;;;;;;9.43;4.55;;;22.20;99.90;;;;;;5049464;28;20095;-75
2023/09/28 09:38:31;;;;;;;13.77;5.47;;;22.30;99.90;;;;;;5048008;28;20061;-74
2023/09/28 09:41:07;;;;;;;9.15;4.65;;;22.30;99.90;;;;;;5048658;28;20032;-75
2023/09/28 09:43:36;;;;;;;12.20;4.65;;;22.60;99.90;;;;;;5049109;28;20033;-74
2023/09/28 09:46:06;;;;;;;11.83;4.83;;;22.60;99.90;;;;;;5049034;28;20050;-74
2023/09/28 09:48:42;;;;;;;8.13;4.55;;;22.70;99.90;;;;;;5049266;28;20386;-74
2023/09/28 09:51:12;;;;;;;8.32;4.63;;;22.80;99.90;;;;;;5049039;28;20091;-74
2023/09/28 09:53:47;;;;;;;8.75;5.13;;;22.90;99.20;;;;;;5049621;28;20481;-74
2023/09/28 09:56:15;;;;;;;10.52;3.92;;;23.10;99.90;;;;;;5048420;28;20033;-74
2023/09/28 09:58:43;;;;;;;9.32;4.53;;;23.30;99.90;;;;;;5048895;28;20021;-75
2023/09/28 10:01:13;;;;;;;8.57;4.70;;;23.10;99.90;;;;;;5048432;28;20039;-74
2023/09/28 10:03:42;;;;;;;;;;;22.90;99.90;;;;;;5049719;28;20067;-74
2023/09/28 10:06:10;;;;;;;10.85;5.10;;;23.00;99.90;;;;;;5057390;28;19923;-75
2023/09/28 10:08:37;;;;;;;8.48;4.80;;;23.20;99.90;;;;;;5048813;28;20021;-75
2023/09/28 10:11:04;;;;;;;10.13;4.95;;;23.30;99.90;;;;;;5048785;28;20123;-74
2023/09/28 10:13:31;;;;;;;11.63;4.78;;;23.50;99.90;;;;;;5047042;28;20036;-74
2023/09/28 10:16:00;;;;;;;8.85;5.20;;;23.50;99.90;;;;;;5047711;28;20025;-74
2023/09/28 10:18:29;;;;;;;10.15;5.07;;;23.60;99.90;;;;;;5048263;28;20035;-74
2023/09/28 10:20:55;;;;;;;10.57;5.28;;;23.90;99.20;;;;;;5049390;28;20111;-75
2023/09/28 10:23:26;;;;;;;8.45;5.10;;;23.90;98.00;;;;;;5048456;28;20059;-74
2023/09/28 10:25:53;;;;;;;9.95;4.43;;;23.90;97.50;;;;;;5049151;28;20574;-74
2023/09/28 10:28:19;;;;;;;11.48;4.60;;;24.00;97.70;;;;;;5048219;28;20029;-74
2023/09/28 10:30:45;;;;;;;8.23;4.35;;;24.30;97.40;;;;;;5048814;28;20086;-75
2023/09/28 10:33:12;;;;;;;9.73;3.95;;;24.50;98.60;;;;;;5048199;28;20029;-74
2023/09/28 10:35:39;;;;;;;7.53;4.20;;;24.60;97.20;;;;;;5049037;28;20079;-74
2023/09/28 10:38:21;;;;;;;5.57;3.80;;;24.80;95.30;;;;;;5048336;28;20481;-74
2023/09/28 10:41:02;;;;;;;7.45;4.10;;;25.10;95.30;;;;;;5049051;28;20028;-75
2023/09/28 10:43:29;;;;;;;9.65;3.60;;;25.20;95.10;;;;;;5048305;28;20056;-74
2023/09/28 10:45:55;;;;;;;9.18;3.35;;;25.00;94.40;;;;;;5047423;28;20507;-74
2023/09/28 10:48:23;;;;;;;7.15;2.97;;;25.00;92.80;;;;;;5045583;28;20025;-74
2023/09/28 10:50:51;;;;;;;7.32;3.20;;;24.80;93.20;;;;;;5048573;28;20020;-74
2023/09/28 10:53:18;;;;;;;5.38;3.38;;;25.00;94.40;;;;;;5039709;28;20755;-75
2023/09/28 10:55:43;;;;;;;4.70;2.90;;;25.10;92.80;;;;;;5046823;28;20059;-75
2023/09/28 10:58:10;;;;;;;10.05;3.08;;;25.30;92.80;;;;;;5047208;28;20028;-74
2023/09/28 11:00:37;;;;;;;6.00;2.85;;;25.40;93.50;;;;;;5048173;28;20036;-74
2023/09/28 11:03:04;;;;;;;5.13;3.08;;;25.60;91.20;;;;;;5048370;28;20037;-74
2023/09/28 11:05:30;;;;;;;4.35;2.55;;;25.70;89.20;;;;;;5048005;28;20536;-75
2023/09/28 11:08:00;;;;;;;5.70;2.60;;;25.90;85.80;;;;;;5047079;28;20036;-75
2023/09/28 11:10:26;;;;;;;4.85;2.40;;;25.90;86.60;;;;;;5047107;28;20033;-75
2023/09/28 11:12:52;;;;;;;5.20;2.30;;;26.10;86.20;;;;;;5047191;28;20037;-75
2023/09/28 11:15:18;;;;;;;5.28;2.53;;;26.30;87.00;;;;;;5045914;28;20072;-74
2023/09/28 11:17:46;;;;;;;4.82;2.83;;;26.50;83.70;;;;;;5046927;28;20056;-74
2023/09/28 11:20:12;;;;;;;4.05;2.70;;;26.50;82.80;;;;;;5031191;28;20039;-75
2023/09/28 11:22:38;;;;;;;3.42;2.47;;;26.50;81.80;;;;;;5043054;28;20028;-74
2023/09/28 11:25:06;;;;;;;6.63;2.60;;;26.60;84.90;;;;;;5047348;28;20461;-75
2023/09/28 11:27:31;;;;;;;5.65;3.15;;;26.80;83.20;;;;;;5029366;28;20026;-74
2023/09/28 11:29:58;;;;;;;5.88;3.50;;;26.60;82.40;;;;;;5028218;28;20063;-75
2023/09/28 11:32:24;;;;;;;5.80;2.85;;;26.60;83.10;;;;;;5043778;28;20034;-74
2023/09/28 11:34:53;;;;;;;5.13;2.55;;;26.70;80.70;;;;;;5046258;28;20040;-74
2023/09/28 11:37:22;;;;;;;8.37;3.00;;;27.00;84.50;;;;;;5046350;28;20057;-74
2023/09/28 11:39:49;;;;;;;4.23;2.70;;;27.10;80.90;;;;;;5046488;28;20074;-75
2023/09/28 11:42:14;;;;;;;7.50;2.95;;;27.10;78.20;;;;;;5046494;28;20643;-74
2023/09/28 11:44:42;;;;;;;4.10;2.63;;;27.00;81.00;;;;;;5046827;28;20033;-75
2023/09/28 11:47:08;;;;;;;7.35;2.97;;;27.10;80.80;;;;;;5046997;28;20214;-74
2023/09/28 11:49:37;;;;;;;5.03;2.80;;;27.10;82.10;;;;;;5046674;28;20183;-74
2023/09/28 11:52:03;;;;;;;4.50;2.90;;;27.20;80.40;;;;;;5045919;28;20166;-74
2023/09/28 11:54:29;;;;;;;8.10;2.78;;;27.50;82.90;;;;;;5046237;28;20032;-75
2023/09/28 11:56:57;;;;;;;4.93;3.08;;;27.80;78.00;;;;;;5046589;28;20033;-74
2023/09/28 11:59:23;;;;;;;4.43;2.42;;;27.80;77.90;;;;;;5048501;28;20037;-74
2023/09/28 12:01:53;;;;;;;3.53;2.50;;;28.00;75.60;;;;;;5051331;28;20035;-74
2023/09/28 12:04:18;;;;;;;3.88;2.42;;;27.70;71.10;;;;;;5050419;28;20110;-75
2023/09/28 12:06:45;;;;;;;4.55;2.15;;;27.40;77.20;;;;;;5051062;28;20479;-74
2023/09/28 12:09:13;;;;;;;7.82;2.30;;;27.50;76.60;;;;;;5050818;28;20032;-74
2023/09/28 12:11:39;;;;;;;4.40;2.63;;;27.90;76.50;;;;;;5051242;28;20112;-74
2023/09/28 12:14:06;;;;;;;3.72;2.08;;;28.30;75.60;;;;;;5050572;28;20045;-73
2023/09/28 12:16:32;;;;;;;4.80;2.20;;;28.00;70.40;;;;;;5049910;28;20554;-74
2023/09/28 12:18:58;;;;;;;4.05;2.08;;;27.80;72.80;;;;;;5050835;28;20415;-74
2023/09/28 12:21:24;;;;;;;3.78;2.65;;;27.90;69.80;;;;;;5050010;28;20045;-74
2023/09/28 12:23:50;;;;;;;4.32;2.40;;;28.20;71.30;;;;;;5049191;28;20150;-74
2023/09/28 12:26:17;;;;;;;5.13;2.90;;;27.70;70.40;;;;;;5050115;28;20087;-74
2023/09/28 12:28:43;;;;;;;5.65;2.50;;;27.40;77.80;;;;;;5050341;28;20108;-74
2023/09/28 12:31:08;;;;;;;4.45;2.50;;;27.60;77.80;;;;;;5050756;28;20529;-74
2023/09/28 12:33:36;;;;;;;4.03;2.72;;;27.90;74.80;;;;;;5049238;28;20037;-74
2023/09/28 12:36:02;;;;;;;4.40;2.38;;;28.10;75.60;;;;;;5050631;28;20044;-74